Parson, Canada
Current Conditions -  °F | °C
As of 11:26 AM on Thursday 27 Nov 2014 (Local Time) from CYGE Reporting Station
Light Snow Light Snow  
Wind Chill: 30°   Ceiling: 400
Heat Index: 30°   Visibility: 3mi
Dew Point: 28°   Wind: 0mph
Humidity: 93%   Direction: NA
Pressure: 29.72"   Gusts: NA
Location:  51.1°N, 116.7°W
Report Text: CYGE 271826Z 00000KT 3SM -SN OVC004 M01/M02 A2972 RMK SN7ST1 SLP096
Loading
Personal Weather Stations






























Interactive Weather Map New forecast layout! Learn more

10-Day Weather Forecast

Advertisements
Track Severe Weather on mobile